Aviation Digital Data Service (ADDS)

Output produced by METARs form (2220 UTC 01 December 2021)
found at http://aviationweather.gov/metar/data/
 
KNEW 012153Z AUTO 11005KT 10SM FEW050 21/13 A3012 RMK AO2 SLP194 T02110133
KNEW 011740Z 0118/0218 VRB04KT P6SM SCT250